sensor_id;sensor_type;location;lat;lon;timestamp;P1;durP1;ratioP1;P2;durP2;ratioP2
7783;SDS011;19359;51.402;6.778;2022-10-15T00:00:17;15.60;;;11.65;;
7783;SDS011;19359;51.402;6.778;2022-10-15T00:02:44;22.45;;;12.40;;
7783;SDS011;19359;51.402;6.778;2022-10-15T00:05:10;16.23;;;11.88;;
7783;SDS011;19359;51.402;6.778;2022-10-15T00:07:37;23.45;;;11.80;;
7783;SDS011;19359;51.402;6.778;2022-10-15T00:10:06;13.70;;;10.73;;
7783;SDS011;19359;51.402;6.778;2022-10-15T00:12:34;17.80;;;11.25;;
7783;SDS011;19359;51.402;6.778;2022-10-15T00:15:01;15.02;;;10.73;;
7783;SDS011;19359;51.402;6.778;2022-10-15T00:17:29;14.77;;;11.13;;
7783;SDS011;19359;51.402;6.778;2022-10-15T00:19:55;14.70;;;11.38;;
7783;SDS011;19359;51.402;6.778;2022-10-15T00:22:22;20.58;;;12.18;;
7783;SDS011;19359;51.402;6.778;2022-10-15T00:24:49;96.50;;;12.82;;
7783;SDS011;19359;51.402;6.778;2022-10-15T00:27:17;20.08;;;11.25;;
7783;SDS011;19359;51.402;6.778;2022-10-15T00:29:44;15.52;;;10.65;;
7783;SDS011;19359;51.402;6.778;2022-10-15T00:32:10;157.75;;;15.10;;
7783;SDS011;19359;51.402;6.778;2022-10-15T00:34:37;19.33;;;9.90;;
7783;SDS011;19359;51.402;6.778;2022-10-15T00:37:04;12.45;;;10.00;;
7783;SDS011;19359;51.402;6.778;2022-10-15T00:39:30;21.33;;;10.23;;
7783;SDS011;19359;51.402;6.778;2022-10-15T00:41:57;13.70;;;10.02;;
7783;SDS011;19359;51.402;6.778;2022-10-15T00:47:16;20.30;;;10.02;;
7783;SDS011;19359;51.402;6.778;2022-10-15T00:49:45;12.20;;;10.38;;
7783;SDS011;19359;51.402;6.778;2022-10-15T00:52:16;22.58;;;9.98;;
7783;SDS011;19359;51.402;6.778;2022-10-15T00:54:48;15.00;;;10.35;;
7783;SDS011;19359;51.402;6.778;2022-10-15T00:57:18;16.55;;;9.90;;
7783;SDS011;19359;51.402;6.778;2022-10-15T00:59:46;18.10;;;9.80;;
7783;SDS011;19359;51.402;6.778;2022-10-15T01:02:17;11.65;;;9.75;;
7783;SDS011;19359;51.402;6.778;2022-10-15T01:04:45;48.70;;;11.07;;
7783;SDS011;19359;51.402;6.778;2022-10-15T01:07:12;16.95;;;9.90;;
7783;SDS011;19359;51.402;6.778;2022-10-15T01:09:39;129.65;;;13.38;;
7783;SDS011;19359;51.402;6.778;2022-10-15T01:12:07;11.40;;;10.05;;
7783;SDS011;19359;51.402;6.778;2022-10-15T01:14:42;10.65;;;8.60;;
7783;SDS011;19359;51.402;6.778;2022-10-15T01:17:17;10.10;;;8.32;;
7783;SDS011;19359;51.402;6.778;2022-10-15T01:19:54;9.48;;;7.45;;
7783;SDS011;19359;51.402;6.778;2022-10-15T01:22:53;9.13;;;8.07;;
7783;SDS011;19359;51.402;6.778;2022-10-15T01:25:28;8.80;;;7.90;;
7783;SDS011;19359;51.402;6.778;2022-10-15T01:28:08;10.30;;;7.32;;
7783;SDS011;19359;51.402;6.778;2022-10-15T01:30:50;6.80;;;6.22;;
7783;SDS011;19359;51.402;6.778;2022-10-15T01:33:25;10.95;;;7.38;;
7783;SDS011;19359;51.402;6.778;2022-10-15T01:35:58;8.43;;;7.15;;
7783;SDS011;19359;51.402;6.778;2022-10-15T01:38:38;10.20;;;8.23;;
7783;SDS011;19359;51.402;6.778;2022-10-15T01:41:13;7.75;;;7.13;;
7783;SDS011;19359;51.402;6.778;2022-10-15T01:43:44;8.45;;;7.35;;
7783;SDS011;19359;51.402;6.778;2022-10-15T01:46:17;8.35;;;7.75;;
7783;SDS011;19359;51.402;6.778;2022-10-15T01:48:48;7.88;;;7.15;;
7783;SDS011;19359;51.402;6.778;2022-10-15T01:51:17;8.88;;;6.97;;
7783;SDS011;19359;51.402;6.778;2022-10-15T01:53:45;10.10;;;8.18;;
7783;SDS011;19359;51.402;6.778;2022-10-15T01:56:14;10.93;;;8.35;;
7783;SDS011;19359;51.402;6.778;2022-10-15T01:58:45;11.07;;;8.30;;
7783;SDS011;19359;51.402;6.778;2022-10-15T02:01:16;10.20;;;7.97;;
7783;SDS011;19359;51.402;6.778;2022-10-15T02:03:44;12.52;;;7.90;;
7783;SDS011;19359;51.402;6.778;2022-10-15T02:06:12;12.60;;;8.55;;
7783;SDS011;19359;51.402;6.778;2022-10-15T02:08:45;10.02;;;8.07;;
7783;SDS011;19359;51.402;6.778;2022-10-15T02:11:20;9.48;;;8.57;;
7783;SDS011;19359;51.402;6.778;2022-10-15T02:13:49;9.93;;;8.50;;
7783;SDS011;19359;51.402;6.778;2022-10-15T02:16:23;12.55;;;8.93;;
7783;SDS011;19359;51.402;6.778;2022-10-15T02:18:56;9.05;;;8.18;;
7783;SDS011;19359;51.402;6.778;2022-10-15T02:21:31;11.35;;;8.13;;
7783;SDS011;19359;51.402;6.778;2022-10-15T02:24:04;12.73;;;8.85;;
7783;SDS011;19359;51.402;6.778;2022-10-15T02:26:34;15.27;;;8.13;;
7783;SDS011;19359;51.402;6.778;2022-10-15T02:29:04;15.32;;;9.02;;
7783;SDS011;19359;51.402;6.778;2022-10-15T02:31:37;15.07;;;9.40;;
7783;SDS011;19359;51.402;6.778;2022-10-15T02:34:08;16.02;;;9.30;;
7783;SDS011;19359;51.402;6.778;2022-10-15T02:36:38;14.50;;;9.63;;
7783;SDS011;19359;51.402;6.778;2022-10-15T02:39:06;13.55;;;9.52;;
7783;SDS011;19359;51.402;6.778;2022-10-15T02:41:35;15.02;;;10.65;;
7783;SDS011;19359;51.402;6.778;2022-10-15T02:44:03;15.68;;;11.02;;
7783;SDS011;19359;51.402;6.778;2022-10-15T02:46:31;14.93;;;12.38;;
7783;SDS011;19359;51.402;6.778;2022-10-15T02:48:59;18.77;;;15.10;;
7783;SDS011;19359;51.402;6.778;2022-10-15T02:51:26;22.90;;;13.55;;
7783;SDS011;19359;51.402;6.778;2022-10-15T02:53:56;17.98;;;13.30;;
7783;SDS011;19359;51.402;6.778;2022-10-15T02:56:23;21.27;;;14.93;;
7783;SDS011;19359;51.402;6.778;2022-10-15T02:58:50;16.67;;;14.93;;
7783;SDS011;19359;51.402;6.778;2022-10-15T03:01:17;18.95;;;14.27;;
7783;SDS011;19359;51.402;6.778;2022-10-15T03:03:43;22.75;;;14.68;;
7783;SDS011;19359;51.402;6.778;2022-10-15T03:06:11;22.50;;;15.02;;
7783;SDS011;19359;51.402;6.778;2022-10-15T03:08:38;17.90;;;15.20;;
7783;SDS011;19359;51.402;6.778;2022-10-15T03:11:06;17.42;;;14.80;;
7783;SDS011;19359;51.402;6.778;2022-10-15T03:13:34;22.95;;;14.73;;
7783;SDS011;19359;51.402;6.778;2022-10-15T03:16:02;21.10;;;14.30;;
7783;SDS011;19359;51.402;6.778;2022-10-15T03:18:30;19.05;;;14.43;;
7783;SDS011;19359;51.402;6.778;2022-10-15T03:20:57;17.13;;;14.35;;
7783;SDS011;19359;51.402;6.778;2022-10-15T03:23:25;20.90;;;14.77;;
7783;SDS011;19359;51.402;6.778;2022-10-15T03:25:52;21.48;;;15.15;;
7783;SDS011;19359;51.402;6.778;2022-10-15T03:28:19;20.08;;;15.80;;
7783;SDS011;19359;51.402;6.778;2022-10-15T03:30:46;17.95;;;14.30;;
7783;SDS011;19359;51.402;6.778;2022-10-15T03:33:13;18.52;;;14.70;;
7783;SDS011;19359;51.402;6.778;2022-10-15T03:35:40;16.90;;;13.63;;
7783;SDS011;19359;51.402;6.778;2022-10-15T03:38:07;22.33;;;15.35;;
7783;SDS011;19359;51.402;6.778;2022-10-15T03:40:35;18.90;;;14.68;;
7783;SDS011;19359;51.402;6.778;2022-10-15T03:43:02;18.30;;;13.98;;
7783;SDS011;19359;51.402;6.778;2022-10-15T03:45:28;17.75;;;13.98;;
7783;SDS011;19359;51.402;6.778;2022-10-15T03:47:55;19.05;;;14.57;;
7783;SDS011;19359;51.402;6.778;2022-10-15T03:50:22;19.08;;;14.65;;
7783;SDS011;19359;51.402;6.778;2022-10-15T03:52:49;23.73;;;15.50;;
7783;SDS011;19359;51.402;6.778;2022-10-15T03:55:16;22.58;;;15.68;;
7783;SDS011;19359;51.402;6.778;2022-10-15T03:57:44;21.90;;;15.98;;
7783;SDS011;19359;51.402;6.778;2022-10-15T04:00:11;20.30;;;15.18;;
7783;SDS011;19359;51.402;6.778;2022-10-15T04:02:39;21.42;;;14.73;;
7783;SDS011;19359;51.402;6.778;2022-10-15T04:05:05;20.27;;;15.13;;
7783;SDS011;19359;51.402;6.778;2022-10-15T04:07:32;22.58;;;15.65;;
7783;SDS011;19359;51.402;6.778;2022-10-15T04:09:59;23.67;;;16.27;;
7783;SDS011;19359;51.402;6.778;2022-10-15T04:12:26;16.58;;;13.93;;
7783;SDS011;19359;51.402;6.778;2022-10-15T04:14:54;21.50;;;14.90;;
7783;SDS011;19359;51.402;6.778;2022-10-15T04:17:20;22.27;;;15.50;;
7783;SDS011;19359;51.402;6.778;2022-10-15T04:19:47;21.33;;;16.00;;
7783;SDS011;19359;51.402;6.778;2022-10-15T04:22:14;24.58;;;16.75;;
7783;SDS011;19359;51.402;6.778;2022-10-15T04:24:40;24.60;;;15.15;;
7783;SDS011;19359;51.402;6.778;2022-10-15T04:27:07;21.98;;;15.93;;
7783;SDS011;19359;51.402;6.778;2022-10-15T04:29:38;18.98;;;15.90;;
7783;SDS011;19359;51.402;6.778;2022-10-15T04:32:06;21.75;;;15.52;;
7783;SDS011;19359;51.402;6.778;2022-10-15T04:34:32;21.27;;;15.43;;
7783;SDS011;19359;51.402;6.778;2022-10-15T04:36:59;22.15;;;15.88;;
7783;SDS011;19359;51.402;6.778;2022-10-15T04:39:26;18.67;;;15.25;;
7783;SDS011;19359;51.402;6.778;2022-10-15T04:41:52;19.52;;;16.48;;
7783;SDS011;19359;51.402;6.778;2022-10-15T04:44:19;26.75;;;16.10;;
7783;SDS011;19359;51.402;6.778;2022-10-15T04:46:46;22.30;;;14.73;;
7783;SDS011;19359;51.402;6.778;2022-10-15T04:49:14;21.20;;;14.68;;
7783;SDS011;19359;51.402;6.778;2022-10-15T04:51:41;20.98;;;16.67;;
7783;SDS011;19359;51.402;6.778;2022-10-15T04:54:07;22.13;;;15.80;;
7783;SDS011;19359;51.402;6.778;2022-10-15T04:56:34;22.38;;;15.73;;
7783;SDS011;19359;51.402;6.778;2022-10-15T04:59:04;20.60;;;14.95;;
7783;SDS011;19359;51.402;6.778;2022-10-15T05:01:32;18.73;;;15.80;;
7783;SDS011;19359;51.402;6.778;2022-10-15T05:03:59;25.60;;;16.08;;
7783;SDS011;19359;51.402;6.778;2022-10-15T05:06:27;19.90;;;16.33;;
7783;SDS011;19359;51.402;6.778;2022-10-15T05:08:54;22.92;;;16.50;;
7783;SDS011;19359;51.402;6.778;2022-10-15T05:11:21;23.98;;;17.15;;
7783;SDS011;19359;51.402;6.778;2022-10-15T05:13:49;21.40;;;15.73;;
7783;SDS011;19359;51.402;6.778;2022-10-15T05:16:18;27.17;;;15.90;;
7783;SDS011;19359;51.402;6.778;2022-10-15T05:18:47;23.83;;;14.90;;
7783;SDS011;19359;51.402;6.778;2022-10-15T05:21:15;27.35;;;14.82;;
7783;SDS011;19359;51.402;6.778;2022-10-15T05:23:44;21.48;;;15.48;;
7783;SDS011;19359;51.402;6.778;2022-10-15T05:26:12;21.33;;;15.70;;
7783;SDS011;19359;51.402;6.778;2022-10-15T05:28:39;23.63;;;15.40;;
7783;SDS011;19359;51.402;6.778;2022-10-15T05:31:08;23.08;;;15.77;;
7783;SDS011;19359;51.402;6.778;2022-10-15T05:33:36;31.42;;;15.40;;
7783;SDS011;19359;51.402;6.778;2022-10-15T05:36:07;27.40;;;13.23;;
7783;SDS011;19359;51.402;6.778;2022-10-15T05:38:34;18.60;;;13.90;;
7783;SDS011;19359;51.402;6.778;2022-10-15T05:41:03;18.08;;;13.63;;
7783;SDS011;19359;51.402;6.778;2022-10-15T05:43:30;22.73;;;14.05;;
7783;SDS011;19359;51.402;6.778;2022-10-15T05:45:56;16.70;;;13.43;;
7783;SDS011;19359;51.402;6.778;2022-10-15T05:48:23;20.73;;;14.10;;
7783;SDS011;19359;51.402;6.778;2022-10-15T05:50:50;21.15;;;15.70;;
7783;SDS011;19359;51.402;6.778;2022-10-15T05:53:17;22.00;;;15.50;;
7783;SDS011;19359;51.402;6.778;2022-10-15T05:55:44;25.95;;;14.77;;
7783;SDS011;19359;51.402;6.778;2022-10-15T05:58:12;29.80;;;15.98;;
7783;SDS011;19359;51.402;6.778;2022-10-15T06:00:39;24.83;;;15.60;;
7783;SDS011;19359;51.402;6.778;2022-10-15T06:03:05;27.08;;;16.15;;
7783;SDS011;19359;51.402;6.778;2022-10-15T06:05:35;21.35;;;14.82;;
7783;SDS011;19359;51.402;6.778;2022-10-15T06:08:02;26.23;;;16.17;;
7783;SDS011;19359;51.402;6.778;2022-10-15T06:10:29;24.85;;;17.08;;
7783;SDS011;19359;51.402;6.778;2022-10-15T06:12:56;34.65;;;18.02;;
7783;SDS011;19359;51.402;6.778;2022-10-15T06:15:24;32.15;;;20.88;;
7783;SDS011;19359;51.402;6.778;2022-10-15T06:17:51;34.33;;;22.38;;
7783;SDS011;19359;51.402;6.778;2022-10-15T06:20:18;43.50;;;23.52;;
7783;SDS011;19359;51.402;6.778;2022-10-15T06:22:45;32.20;;;20.30;;
7783;SDS011;19359;51.402;6.778;2022-10-15T06:25:12;31.63;;;20.23;;
7783;SDS011;19359;51.402;6.778;2022-10-15T06:27:39;27.73;;;18.80;;
7783;SDS011;19359;51.402;6.778;2022-10-15T06:30:06;28.05;;;18.75;;
7783;SDS011;19359;51.402;6.778;2022-10-15T06:32:35;35.65;;;18.42;;
7783;SDS011;19359;51.402;6.778;2022-10-15T06:35:02;29.35;;;18.50;;
7783;SDS011;19359;51.402;6.778;2022-10-15T06:37:29;27.83;;;17.20;;
7783;SDS011;19359;51.402;6.778;2022-10-15T06:39:55;28.25;;;18.20;;
7783;SDS011;19359;51.402;6.778;2022-10-15T06:42:22;24.95;;;17.75;;
7783;SDS011;19359;51.402;6.778;2022-10-15T06:44:49;30.10;;;18.30;;
7783;SDS011;19359;51.402;6.778;2022-10-15T06:47:15;30.30;;;18.02;;
7783;SDS011;19359;51.402;6.778;2022-10-15T06:49:43;39.08;;;19.52;;
7783;SDS011;19359;51.402;6.778;2022-10-15T06:52:10;34.40;;;18.05;;
7783;SDS011;19359;51.402;6.778;2022-10-15T06:54:37;30.05;;;18.95;;
7783;SDS011;19359;51.402;6.778;2022-10-15T06:57:04;30.27;;;18.83;;
7783;SDS011;19359;51.402;6.778;2022-10-15T06:59:31;31.77;;;18.63;;
7783;SDS011;19359;51.402;6.778;2022-10-15T07:01:58;29.17;;;18.90;;
7783;SDS011;19359;51.402;6.778;2022-10-15T07:04:25;25.73;;;18.65;;
7783;SDS011;19359;51.402;6.778;2022-10-15T07:06:53;32.28;;;19.20;;
7783;SDS011;19359;51.402;6.778;2022-10-15T07:09:20;33.38;;;18.52;;
7783;SDS011;19359;51.402;6.778;2022-10-15T07:11:47;31.67;;;18.52;;
7783;SDS011;19359;51.402;6.778;2022-10-15T07:14:14;37.35;;;20.70;;
7783;SDS011;19359;51.402;6.778;2022-10-15T07:16:41;37.33;;;20.00;;
7783;SDS011;19359;51.402;6.778;2022-10-15T07:19:08;30.23;;;20.42;;
7783;SDS011;19359;51.402;6.778;2022-10-15T07:21:35;34.72;;;20.65;;
7783;SDS011;19359;51.402;6.778;2022-10-15T07:24:04;30.63;;;19.08;;
7783;SDS011;19359;51.402;6.778;2022-10-15T07:26:31;34.58;;;20.50;;
7783;SDS011;19359;51.402;6.778;2022-10-15T07:28:59;36.10;;;20.17;;
7783;SDS011;19359;51.402;6.778;2022-10-15T07:31:26;37.42;;;19.88;;
7783;SDS011;19359;51.402;6.778;2022-10-15T07:33:54;38.28;;;20.80;;
7783;SDS011;19359;51.402;6.778;2022-10-15T07:36:21;32.83;;;20.63;;
7783;SDS011;19359;51.402;6.778;2022-10-15T07:38:48;33.38;;;20.25;;
7783;SDS011;19359;51.402;6.778;2022-10-15T07:41:17;32.38;;;20.55;;
7783;SDS011;19359;51.402;6.778;2022-10-15T07:43:43;33.60;;;19.92;;
7783;SDS011;19359;51.402;6.778;2022-10-15T07:46:10;40.08;;;19.55;;
7783;SDS011;19359;51.402;6.778;2022-10-15T07:48:38;33.97;;;18.05;;
7783;SDS011;19359;51.402;6.778;2022-10-15T07:51:06;32.20;;;19.27;;
7783;SDS011;19359;51.402;6.778;2022-10-15T07:53:33;27.83;;;18.90;;
7783;SDS011;19359;51.402;6.778;2022-10-15T07:56:01;30.40;;;19.15;;
7783;SDS011;19359;51.402;6.778;2022-10-15T07:58:31;32.08;;;18.20;;
7783;SDS011;19359;51.402;6.778;2022-10-15T08:00:59;26.52;;;17.85;;
7783;SDS011;19359;51.402;6.778;2022-10-15T08:03:26;29.92;;;19.58;;
7783;SDS011;19359;51.402;6.778;2022-10-15T08:05:54;25.30;;;18.02;;
7783;SDS011;19359;51.402;6.778;2022-10-15T08:08:22;30.08;;;19.13;;
7783;SDS011;19359;51.402;6.778;2022-10-15T08:10:49;31.08;;;18.42;;
7783;SDS011;19359;51.402;6.778;2022-10-15T08:13:16;32.03;;;20.70;;
7783;SDS011;19359;51.402;6.778;2022-10-15T08:15:44;29.02;;;18.65;;
7783;SDS011;19359;51.402;6.778;2022-10-15T08:18:12;31.05;;;18.17;;
7783;SDS011;19359;51.402;6.778;2022-10-15T08:20:39;27.45;;;17.83;;
7783;SDS011;19359;51.402;6.778;2022-10-15T08:23:10;29.80;;;18.20;;
7783;SDS011;19359;51.402;6.778;2022-10-15T08:25:40;25.67;;;16.65;;
7783;SDS011;19359;51.402;6.778;2022-10-15T08:28:07;24.77;;;17.42;;
7783;SDS011;19359;51.402;6.778;2022-10-15T08:30:35;25.92;;;15.77;;
7783;SDS011;19359;51.402;6.778;2022-10-15T08:33:03;24.33;;;15.73;;
7783;SDS011;19359;51.402;6.778;2022-10-15T08:35:30;20.20;;;14.10;;
7783;SDS011;19359;51.402;6.778;2022-10-15T08:37:59;16.92;;;13.07;;
7783;SDS011;19359;51.402;6.778;2022-10-15T08:40:27;21.90;;;13.75;;
7783;SDS011;19359;51.402;6.778;2022-10-15T08:42:54;18.52;;;11.18;;
7783;SDS011;19359;51.402;6.778;2022-10-15T08:45:23;11.57;;;10.35;;
7783;SDS011;19359;51.402;6.778;2022-10-15T08:47:55;11.45;;;9.93;;
7783;SDS011;19359;51.402;6.778;2022-10-15T08:50:27;11.88;;;9.40;;
7783;SDS011;19359;51.402;6.778;2022-10-15T08:53:04;10.35;;;9.02;;
7783;SDS011;19359;51.402;6.778;2022-10-15T08:55:33;12.75;;;8.02;;
7783;SDS011;19359;51.402;6.778;2022-10-15T08:58:05;10.57;;;8.50;;
7783;SDS011;19359;51.402;6.778;2022-10-15T09:00:40;8.93;;;8.02;;
7783;SDS011;19359;51.402;6.778;2022-10-15T09:03:22;8.07;;;7.32;;
7783;SDS011;19359;51.402;6.778;2022-10-15T09:05:58;11.68;;;8.60;;
7783;SDS011;19359;51.402;6.778;2022-10-15T09:08:34;14.52;;;6.88;;
7783;SDS011;19359;51.402;6.778;2022-10-15T09:11:06;9.40;;;6.28;;
7783;SDS011;19359;51.402;6.778;2022-10-15T09:13:39;6.03;;;5.20;;
7783;SDS011;19359;51.402;6.778;2022-10-15T09:16:11;5.10;;;4.70;;
7783;SDS011;19359;51.402;6.778;2022-10-15T09:18:40;4.47;;;4.05;;
7783;SDS011;19359;51.402;6.778;2022-10-15T09:21:11;4.65;;;3.78;;
7783;SDS011;19359;51.402;6.778;2022-10-15T09:23:39;3.40;;;3.20;;
7783;SDS011;19359;51.402;6.778;2022-10-15T09:26:12;2.88;;;2.63;;
7783;SDS011;19359;51.402;6.778;2022-10-15T09:28:48;3.63;;;1.58;;
7783;SDS011;19359;51.402;6.778;2022-10-15T09:31:24;2.53;;;2.30;;
7783;SDS011;19359;51.402;6.778;2022-10-15T09:33:56;3.22;;;1.73;;
7783;SDS011;19359;51.402;6.778;2022-10-15T09:36:33;2.45;;;1.48;;
7783;SDS011;19359;51.402;6.778;2022-10-15T09:39:04;1.45;;;1.45;;
7783;SDS011;19359;51.402;6.778;2022-10-15T09:41:45;1.30;;;1.20;;
7783;SDS011;19359;51.402;6.778;2022-10-15T09:44:21;7.05;;;1.35;;
7783;SDS011;19359;51.402;6.778;2022-10-15T09:46:52;1.10;;;1.10;;
7783;SDS011;19359;51.402;6.778;2022-10-15T09:49:19;0.82;;;0.82;;
7783;SDS011;19359;51.402;6.778;2022-10-15T09:51:52;1.15;;;0.70;;
7783;SDS011;19359;51.402;6.778;2022-10-15T09:54:29;0.80;;;0.80;;
7783;SDS011;19359;51.402;6.778;2022-10-15T09:57:02;0.70;;;0.70;;
7783;SDS011;19359;51.402;6.778;2022-10-15T09:59:33;1.40;;;0.50;;
7783;SDS011;19359;51.402;6.778;2022-10-15T10:02:01;0.40;;;0.40;;
7783;SDS011;19359;51.402;6.778;2022-10-15T10:04:30;0.40;;;0.40;;
7783;SDS011;19359;51.402;6.778;2022-10-15T10:07:03;0.40;;;0.40;;
7783;SDS011;19359;51.402;6.778;2022-10-15T10:09:33;0.20;;;0.20;;
7783;SDS011;19359;51.402;6.778;2022-10-15T10:12:03;1.55;;;0.20;;
7783;SDS011;19359;51.402;6.778;2022-10-15T10:14:33;1.95;;;0.30;;
7783;SDS011;19359;51.402;6.778;2022-10-15T10:17:13;0.20;;;0.20;;
7783;SDS011;19359;51.402;6.778;2022-10-15T10:19:45;1.35;;;0.25;;
7783;SDS011;19359;51.402;6.778;2022-10-15T10:22:41;0.15;;;0.10;;
7783;SDS011;19359;51.402;6.778;2022-10-15T10:25:27;0.20;;;0.20;;
7783;SDS011;19359;51.402;6.778;2022-10-15T10:27:58;0.30;;;0.30;;
7783;SDS011;19359;51.402;6.778;2022-10-15T10:30:31;0.20;;;0.20;;
7783;SDS011;19359;51.402;6.778;2022-10-15T10:33:00;0.30;;;0.30;;
7783;SDS011;19359;51.402;6.778;2022-10-15T10:35:31;4.63;;;0.35;;
7783;SDS011;19359;51.402;6.778;2022-10-15T10:38:03;0.85;;;0.40;;
7783;SDS011;19359;51.402;6.778;2022-10-15T10:40:31;0.40;;;0.40;;
7783;SDS011;19359;51.402;6.778;2022-10-15T10:43:10;0.73;;;0.32;;
7783;SDS011;19359;51.402;6.778;2022-10-15T10:45:51;1.38;;;0.70;;
7783;SDS011;19359;51.402;6.778;2022-10-15T10:48:20;0.40;;;0.40;;
7783;SDS011;19359;51.402;6.778;2022-10-15T10:50:49;0.50;;;0.50;;
7783;SDS011;19359;51.402;6.778;2022-10-15T10:53:29;3.72;;;0.60;;
7783;SDS011;19359;51.402;6.778;2022-10-15T10:55:56;0.40;;;0.40;;
7783;SDS011;19359;51.402;6.778;2022-10-15T10:58:28;0.40;;;0.40;;
7783;SDS011;19359;51.402;6.778;2022-10-15T11:00:57;3.35;;;0.73;;
7783;SDS011;19359;51.402;6.778;2022-10-15T11:03:28;2.65;;;0.98;;
7783;SDS011;19359;51.402;6.778;2022-10-15T11:06:00;1.75;;;0.60;;
7783;SDS011;19359;51.402;6.778;2022-10-15T11:08:43;0.60;;;0.60;;
7783;SDS011;19359;51.402;6.778;2022-10-15T11:11:16;2.65;;;0.60;;
7783;SDS011;19359;51.402;6.778;2022-10-15T11:13:49;0.75;;;0.75;;
7783;SDS011;19359;51.402;6.778;2022-10-15T11:16:28;0.63;;;0.63;;
7783;SDS011;19359;51.402;6.778;2022-10-15T11:19:07;1.60;;;0.50;;
7783;SDS011;19359;51.402;6.778;2022-10-15T11:21:46;0.93;;;0.70;;
7783;SDS011;19359;51.402;6.778;2022-10-15T11:24:21;0.95;;;0.50;;
7783;SDS011;19359;51.402;6.778;2022-10-15T11:26:58;0.40;;;0.40;;
7783;SDS011;19359;51.402;6.778;2022-10-15T11:29:37;0.47;;;0.40;;
7783;SDS011;19359;51.402;6.778;2022-10-15T11:32:13;0.95;;;0.50;;
7783;SDS011;19359;51.402;6.778;2022-10-15T11:34:50;0.73;;;0.40;;
7783;SDS011;19359;51.402;6.778;2022-10-15T11:37:33;1.75;;;0.57;;
7783;SDS011;19359;51.402;6.778;2022-10-15T11:40:16;0.40;;;0.40;;
7783;SDS011;19359;51.402;6.778;2022-10-15T11:42:48;1.85;;;0.63;;
7783;SDS011;19359;51.402;6.778;2022-10-15T11:48:21;0.52;;;0.50;;
7783;SDS011;19359;51.402;6.778;2022-10-15T11:51:00;0.60;;;0.50;;
7783;SDS011;19359;51.402;6.778;2022-10-15T11:53:36;0.40;;;0.40;;
7783;SDS011;19359;51.402;6.778;2022-10-15T11:56:31;0.50;;;0.50;;
7783;SDS011;19359;51.402;6.778;2022-10-15T11:59:02;0.68;;;0.68;;
7783;SDS011;19359;51.402;6.778;2022-10-15T12:01:37;1.60;;;0.70;;
7783;SDS011;19359;51.402;6.778;2022-10-15T12:04:10;1.00;;;0.60;;
7783;SDS011;19359;51.402;6.778;2022-10-15T12:06:41;4.18;;;0.90;;
7783;SDS011;19359;51.402;6.778;2022-10-15T12:09:13;0.60;;;0.60;;
7783;SDS011;19359;51.402;6.778;2022-10-15T12:11:46;0.45;;;0.45;;
7783;SDS011;19359;51.402;6.778;2022-10-15T12:14:17;0.60;;;0.60;;
7783;SDS011;19359;51.402;6.778;2022-10-15T12:16:53;0.60;;;0.60;;
7783;SDS011;19359;51.402;6.778;2022-10-15T12:19:27;0.70;;;0.70;;
7783;SDS011;19359;51.402;6.778;2022-10-15T12:22:01;3.15;;;0.60;;
7783;SDS011;19359;51.402;6.778;2022-10-15T12:24:50;0.50;;;0.50;;
7783;SDS011;19359;51.402;6.778;2022-10-15T12:27:22;1.70;;;0.55;;
7783;SDS011;19359;51.402;6.778;2022-10-15T12:29:51;1.75;;;0.85;;
7783;SDS011;19359;51.402;6.778;2022-10-15T12:32:37;3.35;;;0.85;;
7783;SDS011;19359;51.402;6.778;2022-10-15T12:35:06;2.53;;;0.60;;
7783;SDS011;19359;51.402;6.778;2022-10-15T12:37:45;0.90;;;0.60;;
7783;SDS011;19359;51.402;6.778;2022-10-15T12:40:22;2.28;;;0.60;;
7783;SDS011;19359;51.402;6.778;2022-10-15T12:42:54;1.95;;;0.60;;
7783;SDS011;19359;51.402;6.778;2022-10-15T12:45:23;1.00;;;0.50;;
7783;SDS011;19359;51.402;6.778;2022-10-15T12:47:55;0.43;;;0.43;;
7783;SDS011;19359;51.402;6.778;2022-10-15T12:50:42;0.50;;;0.50;;
7783;SDS011;19359;51.402;6.778;2022-10-15T12:58:40;1.00;;;0.90;;
7783;SDS011;19359;51.402;6.778;2022-10-15T13:03:52;1.75;;;1.65;;
7783;SDS011;19359;51.402;6.778;2022-10-15T13:06:25;1.15;;;1.15;;
7783;SDS011;19359;51.402;6.778;2022-10-15T13:09:01;1.95;;;0.43;;
7783;SDS011;19359;51.402;6.778;2022-10-15T13:11:32;1.95;;;0.50;;
7783;SDS011;19359;51.402;6.778;2022-10-15T13:14:14;0.40;;;0.40;;
7783;SDS011;19359;51.402;6.778;2022-10-15T13:16:46;0.65;;;0.40;;
7783;SDS011;19359;51.402;6.778;2022-10-15T13:19:17;0.68;;;0.40;;
7783;SDS011;19359;51.402;6.778;2022-10-15T13:21:46;0.75;;;0.40;;
7783;SDS011;19359;51.402;6.778;2022-10-15T13:24:15;1.40;;;0.50;;
7783;SDS011;19359;51.402;6.778;2022-10-15T13:26:44;0.40;;;0.40;;
7783;SDS011;19359;51.402;6.778;2022-10-15T13:29:14;1.60;;;0.40;;
7783;SDS011;19359;51.402;6.778;2022-10-15T13:31:42;0.50;;;0.50;;
7783;SDS011;19359;51.402;6.778;2022-10-15T13:34:10;3.92;;;2.10;;
7783;SDS011;19359;51.402;6.778;2022-10-15T13:36:43;1.88;;;1.20;;
7783;SDS011;19359;51.402;6.778;2022-10-15T13:39:19;0.80;;;0.80;;
7783;SDS011;19359;51.402;6.778;2022-10-15T13:41:54;0.70;;;0.70;;
7783;SDS011;19359;51.402;6.778;2022-10-15T13:44:33;1.80;;;0.70;;
7783;SDS011;19359;51.402;6.778;2022-10-15T13:47:00;0.68;;;0.57;;
7783;SDS011;19359;51.402;6.778;2022-10-15T13:49:27;0.68;;;0.68;;
7783;SDS011;19359;51.402;6.778;2022-10-15T13:51:54;0.60;;;0.60;;
7783;SDS011;19359;51.402;6.778;2022-10-15T13:54:22;0.40;;;0.40;;
7783;SDS011;19359;51.402;6.778;2022-10-15T13:56:51;0.30;;;0.30;;
7783;SDS011;19359;51.402;6.778;2022-10-15T13:59:22;0.40;;;0.40;;
7783;SDS011;19359;51.402;6.778;2022-10-15T14:01:52;0.40;;;0.40;;
7783;SDS011;19359;51.402;6.778;2022-10-15T14:04:25;0.85;;;0.50;;
7783;SDS011;19359;51.402;6.778;2022-10-15T14:06:53;0.82;;;0.40;;
7783;SDS011;19359;51.402;6.778;2022-10-15T14:09:26;0.30;;;0.20;;
7783;SDS011;19359;51.402;6.778;2022-10-15T14:11:56;0.40;;;0.40;;
7783;SDS011;19359;51.402;6.778;2022-10-15T14:14:27;1.65;;;0.30;;
7783;SDS011;19359;51.402;6.778;2022-10-15T14:16:56;1.67;;;0.40;;
7783;SDS011;19359;51.402;6.778;2022-10-15T14:19:24;2.58;;;0.40;;
7783;SDS011;19359;51.402;6.778;2022-10-15T14:21:54;0.40;;;0.40;;
7783;SDS011;19359;51.402;6.778;2022-10-15T14:24:22;8.77;;;1.02;;
7783;SDS011;19359;51.402;6.778;2022-10-15T14:26:53;3.10;;;0.75;;
7783;SDS011;19359;51.402;6.778;2022-10-15T14:29:21;0.82;;;0.40;;
7783;SDS011;19359;51.402;6.778;2022-10-15T14:32:00;0.40;;;0.40;;
7783;SDS011;19359;51.402;6.778;2022-10-15T14:34:28;0.52;;;0.40;;
7783;SDS011;19359;51.402;6.778;2022-10-15T14:36:56;3.92;;;2.15;;
7783;SDS011;19359;51.402;6.778;2022-10-15T14:39:27;4.30;;;0.57;;
7783;SDS011;19359;51.402;6.778;2022-10-15T14:41:56;0.40;;;0.40;;
7783;SDS011;19359;51.402;6.778;2022-10-15T14:44:24;0.90;;;0.57;;
7783;SDS011;19359;51.402;6.778;2022-10-15T14:46:51;0.55;;;0.55;;
7783;SDS011;19359;51.402;6.778;2022-10-15T14:49:27;1.08;;;0.80;;
7783;SDS011;19359;51.402;6.778;2022-10-15T14:51:58;0.98;;;0.98;;
7783;SDS011;19359;51.402;6.778;2022-10-15T14:54:35;0.65;;;0.65;;
7783;SDS011;19359;51.402;6.778;2022-10-15T14:57:08;3.80;;;0.80;;
7783;SDS011;19359;51.402;6.778;2022-10-15T14:59:41;1.42;;;0.57;;
7783;SDS011;19359;51.402;6.778;2022-10-15T15:02:09;0.73;;;0.60;;
7783;SDS011;19359;51.402;6.778;2022-10-15T15:04:42;2.47;;;0.82;;
7783;SDS011;19359;51.402;6.778;2022-10-15T15:07:11;4.03;;;1.33;;
7783;SDS011;19359;51.402;6.778;2022-10-15T15:09:39;5.80;;;0.98;;
7783;SDS011;19359;51.402;6.778;2022-10-15T15:12:09;0.80;;;0.80;;
7783;SDS011;19359;51.402;6.778;2022-10-15T15:14:41;0.75;;;0.75;;
7783;SDS011;19359;51.402;6.778;2022-10-15T15:17:10;1.05;;;0.95;;
7783;SDS011;19359;51.402;6.778;2022-10-15T15:19:41;0.95;;;0.95;;